EYSA/SQQ METAR and TAF weather

Enter ICAO airport designator
Station Type Date Time Source
EYSA METAR 2022/01/18 07:50 UTC NOAA

EYSA 180750Z 31010KT CAVOK M03/M05 Q1022 NOSIG


Station Type Date Time Source
EYSA Decoded METAR 2022/01/18 07:50 UTC NOAA

Siauliai Intl./Mil., Lithuania (EYSA) 55-53-38N 023-23-42E
Jan 18, 2022 - 02:50 AM EST / 2022.01.18 0750 UTC
Wind: from the NW (310 degrees) at 12 MPH (10 KT):0
Visibility: greater than 7 mile(s):0
Temperature: 26 F (-3 C)
Windchill: 15 F (-9 C):1
Dew Point: 23 F (-5 C)
Relative Humidity: 86%
Pressure (altimeter): 30.18 in. Hg (1022 hPa)
ob: EYSA 180750Z 31010KT CAVOK M03/M05 Q1022 NOSIG
cycle: 8

Station Type Date Time Source
EYSA TAF 2021/10/25 12:09 UTC NOAA

TAF TAF EYSA 251401Z 2512/2524 20014KT CAVOK

Example: see airport list